createdAt,value
2022-10-06T00:01:48.678Z,1.20
2022-10-06T00:06:51.075Z,1.25
2022-10-06T00:11:52.912Z,1.27
2022-10-06T00:16:54.976Z,0.90
2022-10-06T00:21:57.021Z,1.45
2022-10-06T00:26:59.075Z,1.10
2022-10-06T00:32:00.923Z,1.08
2022-10-06T00:37:03.447Z,1.15
2022-10-06T00:42:05.368Z,1.50
2022-10-06T00:47:08.203Z,1.30
2022-10-06T00:52:14.805Z,1.02
2022-10-06T00:57:17.848Z,0.85
2022-10-06T01:02:28.809Z,1.20
2022-10-06T01:07:31.047Z,1.15
2022-10-06T01:12:34.618Z,0.73
2022-10-06T01:17:40.030Z,1.25
2022-10-06T01:22:45.088Z,0.90
2022-10-06T01:27:53.668Z,1.27
2022-10-06T01:32:58.952Z,1.02
2022-10-06T01:38:01.572Z,1.15
2022-10-06T01:43:05.256Z,0.73
2022-10-06T01:48:07.295Z,1.00
2022-10-06T01:53:09.282Z,1.20
2022-10-06T01:58:12.242Z,1.15
2022-10-06T02:03:15.193Z,1.20
2022-10-06T02:08:17.237Z,0.77
2022-10-06T02:13:19.235Z,0.85
2022-10-06T02:18:22.456Z,1.13
2022-10-06T02:23:24.334Z,1.45
2022-10-06T02:28:26.917Z,1.13
2022-10-06T02:33:30.514Z,1.05
2022-10-06T02:38:33.722Z,1.10
2022-10-06T02:43:37.701Z,0.93
2022-10-06T02:48:41.213Z,1.15
2022-10-06T02:53:44.802Z,1.00
2022-10-06T02:58:48.202Z,1.20
2022-10-06T03:03:57.011Z,1.05
2022-10-06T03:08:58.942Z,0.90
2022-10-06T03:14:01.804Z,1.38
2022-10-06T03:19:06.123Z,1.10
2022-10-06T03:24:08.546Z,1.10
2022-10-06T03:29:12.686Z,0.88
2022-10-06T03:34:18.726Z,1.25
2022-10-06T03:39:21.048Z,3.63
2022-10-06T03:44:24.616Z,1.15
2022-10-06T03:49:27.294Z,1.08
2022-10-06T03:54:29.334Z,1.02
2022-10-06T03:59:34.331Z,1.08
2022-10-06T04:04:38.622Z,1.35
2022-10-06T04:09:46.152Z,1.40
2022-10-06T04:14:48.395Z,1.25
2022-10-06T04:19:50.324Z,0.98
2022-10-06T04:24:52.616Z,0.80
2022-10-06T04:29:54.515Z,1.13
2022-10-06T04:34:56.545Z,1.10
2022-10-06T04:40:00.374Z,1.33
2022-10-06T04:45:05.277Z,1.30
2022-10-06T04:50:08.728Z,1.17
2022-10-06T04:55:11.230Z,1.25
2022-10-06T05:00:25.768Z,0.70
2022-10-06T05:05:29.080Z,1.17
2022-10-06T05:10:32.037Z,1.20
2022-10-06T05:15:34.610Z,1.00
2022-10-06T05:20:36.823Z,1.15
2022-10-06T05:25:39.436Z,1.20
2022-10-06T05:30:41.416Z,1.50
2022-10-06T05:35:55.735Z,0.82
2022-10-06T05:41:17.628Z,1.05
2022-10-06T05:46:24.951Z,1.35
2022-10-06T05:51:32.066Z,1.52
2022-10-06T06:01:41.657Z,1.10
2022-10-06T06:07:01.373Z,0.80
2022-10-06T06:12:03.700Z,0.80
2022-10-06T06:17:12.341Z,0.70
2022-10-06T06:22:14.512Z,1.02
2022-10-06T06:27:18.826Z,1.00
2022-10-06T06:32:20.792Z,1.20
2022-10-06T06:37:23.710Z,1.25
2022-10-06T06:42:25.710Z,1.20
2022-10-06T06:47:35.286Z,0.50
2022-10-06T06:52:39.661Z,0.50
2022-10-06T06:57:46.924Z,0.60
2022-10-06T07:02:56.374Z,0.90
2022-10-06T07:07:58.388Z,1.73
2022-10-06T07:13:01.195Z,1.00
2022-10-06T07:18:21.956Z,0.60
2022-10-06T07:23:43.238Z,0.50
2022-10-06T07:28:49.926Z,0.40
2022-10-06T07:33:53.793Z,0.80
2022-10-06T07:38:56.293Z,0.40
2022-10-06T07:43:59.371Z,0.43
2022-10-06T07:49:04.354Z,0.40
2022-10-06T07:54:07.039Z,0.47
2022-10-06T07:59:29.097Z,0.43
2022-10-06T08:04:30.959Z,0.30
2022-10-06T08:09:32.763Z,0.40
2022-10-06T08:14:35.510Z,0.35
2022-10-06T08:19:37.492Z,0.50
2022-10-06T08:25:04.224Z,0.30
2022-10-06T08:30:01.284Z,0.35
2022-10-06T08:35:03.991Z,0.40
2022-10-06T08:40:08.151Z,0.30
2022-10-06T08:45:32.089Z,0.40
2022-10-06T08:50:50.624Z,0.35
2022-10-06T08:56:01.175Z,0.40
2022-10-06T09:01:16.309Z,0.57
2022-10-06T09:06:49.016Z,0.40
2022-10-06T09:12:29.446Z,0.40
2022-10-06T09:17:40.503Z,0.60
2022-10-06T09:22:44.833Z,0.30
2022-10-06T09:27:53.417Z,0.65
2022-10-06T09:33:00.317Z,0.40
2022-10-06T09:38:08.696Z,0.30
2022-10-06T09:43:28.171Z,0.30
2022-10-06T09:48:29.976Z,0.73
2022-10-06T09:53:35.526Z,0.40
2022-10-06T09:58:52.727Z,0.75
2022-10-06T10:04:21.127Z,0.55
2022-10-06T10:14:38.724Z,0.43
2022-10-06T10:19:43.576Z,0.35
2022-10-06T10:25:36.069Z,0.40
2022-10-06T10:30:55.830Z,0.60
2022-10-06T10:35:59.457Z,0.80
2022-10-06T10:41:20.160Z,0.75
2022-10-06T10:46:33.031Z,0.82
2022-10-06T10:51:37.523Z,0.75
2022-10-06T10:56:39.663Z,0.52
2022-10-06T11:01:53.573Z,0.80
2022-10-06T11:07:07.973Z,0.93
2022-10-06T11:12:56.096Z,0.50
2022-10-06T11:18:21.411Z,0.40
2022-10-06T11:23:24.222Z,0.65
2022-10-06T11:29:02.600Z,0.80
2022-10-06T11:34:06.687Z,0.73
2022-10-06T11:39:24.146Z,0.40
2022-10-06T11:44:39.141Z,0.43
2022-10-06T11:49:55.903Z,0.68
2022-10-06T11:55:15.118Z,0.50
2022-10-06T12:00:17.412Z,0.50
2022-10-06T12:10:50.284Z,0.52
2022-10-06T12:21:32.459Z,0.80
2022-10-06T12:26:43.349Z,0.73
2022-10-06T12:31:51.233Z,0.45
2022-10-06T12:37:19.928Z,1.13
2022-10-06T12:42:27.623Z,0.60
2022-10-06T12:52:49.018Z,0.63
2022-10-06T12:57:52.422Z,0.65
2022-10-06T13:02:57.840Z,0.30
2022-10-06T13:08:20.821Z,0.40
2022-10-06T13:13:25.120Z,0.38
2022-10-06T13:18:28.754Z,1.25
2022-10-06T13:23:36.637Z,0.73
2022-10-06T13:28:44.298Z,1.00
2022-10-06T13:38:50.468Z,0.40
2022-10-06T13:44:14.228Z,0.55
2022-10-06T13:49:30.682Z,0.82
2022-10-06T13:54:32.537Z,0.75
2022-10-06T13:59:38.692Z,0.75
2022-10-06T14:04:40.679Z,0.85
2022-10-06T14:09:43.248Z,0.50
2022-10-06T14:14:48.012Z,0.52
2022-10-06T14:19:50.178Z,0.73
2022-10-06T14:24:52.083Z,1.10
2022-10-06T14:29:55.767Z,0.60
2022-10-06T14:34:57.786Z,0.80
2022-10-06T14:40:00.027Z,0.57
2022-10-06T14:45:02.977Z,0.40
2022-10-06T14:50:05.663Z,0.50
2022-10-06T14:55:08.314Z,0.60
2022-10-06T15:00:10.803Z,0.47
2022-10-06T15:05:13.839Z,0.57
2022-10-06T15:10:15.635Z,0.98
2022-10-06T15:15:17.399Z,0.82
2022-10-06T15:20:19.164Z,0.68
2022-10-06T15:25:39.501Z,0.40
2022-10-06T15:30:41.809Z,0.60
2022-10-06T15:36:24.489Z,0.73
2022-10-06T15:41:26.768Z,1.00
2022-10-06T15:46:35.831Z,0.40
2022-10-06T15:51:45.006Z,0.60
2022-10-06T15:56:48.554Z,3.67
2022-10-06T16:02:03.401Z,4.55
2022-10-06T16:07:10.958Z,6.35
2022-10-06T16:12:18.205Z,2.42
2022-10-06T16:17:20.675Z,1.45
2022-10-06T16:22:22.626Z,1.38
2022-10-06T16:27:24.578Z,0.82
2022-10-06T16:32:26.518Z,1.30
2022-10-06T16:37:28.383Z,1.40
2022-10-06T16:42:30.383Z,1.42
2022-10-06T16:47:32.271Z,1.50
2022-10-06T16:52:34.464Z,1.65
2022-10-06T16:57:36.327Z,1.48
2022-10-06T17:02:38.773Z,1.73
2022-10-06T17:07:40.938Z,1.38
2022-10-06T17:12:42.952Z,1.38
2022-10-06T17:17:45.002Z,1.17
2022-10-06T17:22:47.008Z,1.33
2022-10-06T17:27:48.931Z,1.10
2022-10-06T17:32:50.798Z,1.73
2022-10-06T17:37:54.202Z,1.25
2022-10-06T17:42:57.795Z,1.98
2022-10-06T17:48:00.099Z,2.25
2022-10-06T17:53:02.043Z,3.03
2022-10-06T17:58:04.737Z,2.35
2022-10-06T18:03:07.751Z,2.30
2022-10-06T18:08:13.021Z,2.45
2022-10-06T18:13:15.186Z,1.95
2022-10-06T18:18:16.969Z,2.58
2022-10-06T18:23:18.863Z,2.50
2022-10-06T18:28:20.712Z,3.17
2022-10-06T18:38:45.862Z,3.30
2022-10-06T18:43:48.228Z,3.30
2022-10-06T18:48:56.423Z,2.58
2022-10-06T18:54:03.266Z,2.10
2022-10-06T18:59:12.386Z,2.20
2022-10-06T19:04:17.197Z,2.53
2022-10-06T19:09:21.813Z,2.38
2022-10-06T19:14:30.024Z,2.75
2022-10-06T19:19:31.927Z,2.55
2022-10-06T19:24:39.255Z,3.35
2022-10-06T19:29:45.930Z,2.90
2022-10-06T19:34:49.985Z,2.78
2022-10-06T19:39:51.754Z,2.28
2022-10-06T19:44:53.513Z,3.70
2022-10-06T19:50:00.822Z,3.08
2022-10-06T19:55:05.337Z,2.88
2022-10-06T20:00:10.440Z,3.90
2022-10-06T20:10:17.921Z,3.70
2022-10-06T20:15:19.932Z,2.97
2022-10-06T20:20:21.772Z,2.35
2022-10-06T20:25:23.889Z,1.48
2022-10-06T20:30:25.676Z,1.98
2022-10-06T20:35:27.543Z,1.48
2022-10-06T20:40:43.411Z,1.40
2022-10-06T20:45:45.193Z,1.38
2022-10-06T20:50:47.022Z,2.17
2022-10-06T20:55:52.170Z,1.23
2022-10-06T21:00:54.069Z,1.27
2022-10-06T21:05:55.901Z,1.23
2022-10-06T21:11:02.574Z,1.00
2022-10-06T21:16:04.754Z,1.17
2022-10-06T21:21:08.017Z,1.08
2022-10-06T21:26:12.858Z,1.00
2022-10-06T21:31:20.060Z,1.40
2022-10-06T21:36:24.395Z,1.33
2022-10-06T21:41:31.904Z,0.90
2022-10-06T21:46:36.669Z,0.80
2022-10-06T21:51:39.561Z,1.02
2022-10-06T21:56:41.756Z,1.05
2022-10-06T22:01:45.582Z,1.33
2022-10-06T22:06:50.280Z,1.08
2022-10-06T22:11:52.423Z,1.27
2022-10-06T22:16:54.333Z,0.77
2022-10-06T22:21:56.173Z,0.98
2022-10-06T22:26:58.969Z,0.82
2022-10-06T22:32:00.811Z,0.70
2022-10-06T22:37:02.723Z,1.08
2022-10-06T22:42:04.628Z,0.70
2022-10-06T22:47:06.562Z,1.02
2022-10-06T22:52:08.660Z,1.02
2022-10-06T22:57:10.520Z,1.15
2022-10-06T23:02:12.259Z,1.00
2022-10-06T23:07:14.021Z,1.13
2022-10-06T23:12:15.821Z,1.08
2022-10-06T23:17:17.651Z,1.10
2022-10-06T23:22:19.478Z,0.90
2022-10-06T23:27:21.421Z,0.70
2022-10-06T23:32:23.334Z,0.90
2022-10-06T23:37:25.160Z,0.63
2022-10-06T23:42:27.163Z,0.68
2022-10-06T23:47:29.156Z,1.30
2022-10-06T23:52:30.974Z,1.08
2022-10-06T23:57:32.739Z,1.00
